createdAt,value
2022-08-09T00:00:44.675Z,98657.25
2022-08-09T00:04:06.366Z,98663.22
2022-08-09T00:07:12.864Z,98655.13
2022-08-09T00:10:21.577Z,98657.91
2022-08-09T00:13:31.597Z,98650.34
2022-08-09T00:16:36.699Z,98657.34
2022-08-09T00:19:41.940Z,98657.88
2022-08-09T00:22:51.378Z,98657.06
2022-08-09T00:25:55.128Z,98660.63
2022-08-09T00:29:00.544Z,98661.72
2022-08-09T00:32:04.310Z,98653.28
2022-08-09T00:35:09.415Z,98656.78
2022-08-09T00:38:15.296Z,98653.06
2022-08-09T00:44:16.492Z,98661.88
2022-08-09T00:44:46.874Z,98662.69
2022-08-09T00:47:50.456Z,98655.19
2022-08-09T00:50:53.843Z,98665.88
2022-08-09T00:53:57.200Z,98647.50
2022-08-09T00:57:00.541Z,98670.56
2022-08-09T01:00:21.657Z,98673.47
2022-08-09T01:03:36.474Z,98671.22
2022-08-09T01:06:58.627Z,98674.41
2022-08-09T01:10:05.982Z,98674.50
2022-08-09T01:13:18.367Z,98671.63
2022-08-09T01:16:33.005Z,98677.75
2022-08-09T01:19:57.147Z,98675.59
2022-08-09T01:24:00.839Z,98670.06
2022-08-09T01:26:55.802Z,98677.44
2022-08-09T01:30:01.745Z,98674.16
2022-08-09T01:33:09.945Z,98677.81
2022-08-09T01:36:18.388Z,98680.22
2022-08-09T01:39:23.716Z,98683.75
2022-08-09T01:42:35.000Z,98658.00
2022-08-09T01:45:46.297Z,98677.47
2022-08-09T01:48:52.422Z,98672.53
2022-08-09T01:51:57.808Z,98604.63
2022-08-09T01:55:03.831Z,98682.69
2022-08-09T01:58:10.670Z,98680.25
2022-08-09T02:01:18.438Z,98686.63
2022-08-09T02:04:27.030Z,98665.09
2022-08-09T02:08:39.639Z,98674.34
2022-08-09T02:10:57.952Z,98684.25
2022-08-09T02:14:09.933Z,98687.44
2022-08-09T02:17:59.854Z,98687.28
2022-08-09T02:20:47.838Z,98689.38
2022-08-09T02:23:56.710Z,98698.00
2022-08-09T02:27:02.966Z,98702.28
2022-08-09T02:30:12.065Z,98701.03
2022-08-09T02:33:38.360Z,98704.81
2022-08-09T02:36:55.398Z,98685.81
2022-08-09T02:40:04.127Z,98705.34
2022-08-09T02:43:14.303Z,98708.59
2022-08-09T02:46:19.499Z,98705.25
2022-08-09T02:49:27.167Z,98701.53
2022-08-09T02:52:45.699Z,98701.84
2022-08-09T02:55:58.439Z,98681.88
2022-08-09T02:59:06.001Z,98699.78
2022-08-09T03:02:17.183Z,98689.47
2022-08-09T03:05:20.794Z,98696.75
2022-08-09T03:08:25.324Z,98705.94
2022-08-09T03:12:06.396Z,98702.50
2022-08-09T03:14:54.842Z,98693.75
2022-08-09T03:18:00.747Z,98704.09
2022-08-09T03:21:13.680Z,98702.84
2022-08-09T03:24:17.970Z,98691.84
2022-08-09T03:27:45.209Z,98709.13
2022-08-09T03:34:38.894Z,98712.69
2022-08-09T03:37:56.300Z,98709.88
2022-08-09T03:41:00.544Z,98690.66
2022-08-09T03:44:08.823Z,98716.22
2022-08-09T03:47:12.896Z,98716.88
2022-08-09T03:50:27.959Z,98673.06
2022-08-09T03:53:37.152Z,98723.13
2022-08-09T03:56:41.908Z,98722.41
2022-08-09T03:59:54.281Z,98724.63
2022-08-09T04:03:00.092Z,98724.25
2022-08-09T04:06:06.283Z,98725.09
2022-08-09T04:09:15.804Z,98733.16
2022-08-09T04:12:45.406Z,98742.50
2022-08-09T04:16:20.096Z,98740.06
2022-08-09T04:19:15.784Z,98747.03
2022-08-09T04:22:35.345Z,98731.50
2022-08-09T04:25:44.592Z,98746.41
2022-08-09T04:28:56.195Z,98748.28
2022-08-09T04:32:03.089Z,98754.25
2022-08-09T04:35:11.328Z,98750.88
2022-08-09T04:38:16.220Z,98753.66
2022-08-09T04:41:23.584Z,98758.53
2022-08-09T04:44:28.148Z,98760.00
2022-08-09T04:47:44.958Z,98764.00
2022-08-09T04:50:55.395Z,98770.22
2022-08-09T04:54:02.424Z,98773.75
2022-08-09T04:57:09.418Z,98776.59
2022-08-09T05:00:16.955Z,98779.00
2022-08-09T05:03:40.996Z,98778.25
2022-08-09T05:06:44.269Z,98760.34
2022-08-09T05:09:49.789Z,98790.13
2022-08-09T05:12:54.609Z,98787.63
2022-08-09T05:15:57.877Z,98801.00
2022-08-09T05:19:02.829Z,98794.66
2022-08-09T05:22:06.463Z,98785.78
2022-08-09T05:25:32.407Z,98790.63
2022-08-09T05:28:37.012Z,98773.41
2022-08-09T05:31:46.445Z,98783.09
2022-08-09T05:34:50.907Z,98762.94
2022-08-09T05:37:55.790Z,98789.78
2022-08-09T05:41:00.471Z,98770.22
2022-08-09T05:44:04.809Z,98803.91
2022-08-09T05:47:08.959Z,98793.94
2022-08-09T05:50:25.255Z,98808.75
2022-08-09T05:53:39.531Z,98806.50
2022-08-09T05:57:00.580Z,98795.31
2022-08-09T06:00:06.095Z,98796.22
2022-08-09T06:03:20.214Z,98795.66
2022-08-09T06:06:24.388Z,98782.56
2022-08-09T06:09:54.537Z,98803.22
2022-08-09T06:12:59.355Z,98788.66
2022-08-09T06:16:16.219Z,98802.88
2022-08-09T06:19:19.925Z,98818.53
2022-08-09T06:22:28.969Z,98809.44
2022-08-09T06:25:33.236Z,98739.84
2022-08-09T06:28:43.217Z,98820.16
2022-08-09T06:32:08.751Z,98809.25
2022-08-09T06:35:11.144Z,98824.69
2022-08-09T06:38:15.909Z,98823.97
2022-08-09T06:41:20.512Z,98830.31
2022-08-09T06:44:25.319Z,98823.03
2022-08-09T06:47:40.093Z,98832.84
2022-08-09T06:50:45.177Z,98827.28
2022-08-09T06:53:50.031Z,98834.59
2022-08-09T06:56:53.887Z,98828.56
2022-08-09T07:00:51.563Z,98829.13
2022-08-09T07:03:28.413Z,98836.47
2022-08-09T07:06:33.112Z,98840.69
2022-08-09T07:09:54.874Z,98835.47
2022-08-09T07:13:05.345Z,98837.19
2022-08-09T07:16:42.478Z,98836.59
2022-08-09T07:19:50.823Z,98833.09
2022-08-09T07:22:55.018Z,98834.81
2022-08-09T07:26:02.407Z,98830.22
2022-08-09T07:29:12.371Z,98774.03
2022-08-09T07:32:18.360Z,98837.53
2022-08-09T07:35:26.851Z,98838.38
2022-08-09T07:38:31.173Z,98848.34
2022-08-09T07:41:38.957Z,98839.13
2022-08-09T07:44:52.128Z,98842.03
2022-08-09T07:48:01.443Z,98838.81
2022-08-09T07:52:02.692Z,98843.28
2022-08-09T07:54:31.976Z,98836.88
2022-08-09T07:57:36.312Z,98832.44
2022-08-09T08:00:58.815Z,98847.38
2022-08-09T08:04:10.424Z,98837.41
2022-08-09T08:07:57.153Z,98836.16
2022-08-09T08:10:37.718Z,98835.34
2022-08-09T08:13:45.016Z,98823.94
2022-08-09T08:17:07.367Z,98827.75
2022-08-09T08:20:13.887Z,98827.44
2022-08-09T08:23:18.742Z,98822.41
2022-08-09T08:26:26.562Z,98831.91
2022-08-09T08:29:39.179Z,98828.50
2022-08-09T08:32:53.518Z,98819.31
2022-08-09T08:36:03.834Z,98825.53
2022-08-09T08:39:08.589Z,98832.47
2022-08-09T08:42:14.033Z,98824.53
2022-08-09T08:45:37.207Z,98796.56
2022-08-09T08:48:51.060Z,98828.75
2022-08-09T08:52:01.930Z,98819.97
2022-08-09T08:55:08.300Z,98833.09
2022-08-09T08:58:12.547Z,98830.69
2022-08-09T09:01:20.921Z,98833.91
2022-08-09T09:04:31.157Z,98816.34
2022-08-09T09:07:42.415Z,98831.97
2022-08-09T09:10:46.354Z,98827.16
2022-08-09T09:13:57.121Z,98829.94
2022-08-09T09:17:02.757Z,98824.09
2022-08-09T09:20:11.141Z,98825.25
2022-08-09T09:23:40.435Z,98816.06
2022-08-09T09:26:55.654Z,98825.66
2022-08-09T09:30:16.474Z,98825.44
2022-08-09T09:34:38.967Z,98790.63
2022-08-09T09:37:54.710Z,98792.13
2022-08-09T09:41:01.247Z,98817.34
2022-08-09T09:44:11.752Z,98821.00
2022-08-09T09:47:21.408Z,98804.03
2022-08-09T09:50:49.543Z,98814.13
2022-08-09T09:54:17.851Z,98809.81
2022-08-09T09:58:00.639Z,98818.06
2022-08-09T10:00:54.519Z,98813.16
2022-08-09T10:04:01.489Z,98803.16
2022-08-09T10:07:30.003Z,98798.22
2022-08-09T10:10:34.256Z,98806.84
2022-08-09T10:13:45.288Z,98808.84
2022-08-09T10:16:57.051Z,98794.91
2022-08-09T10:20:15.012Z,98787.94
2022-08-09T10:23:22.636Z,98798.91
2022-08-09T10:26:27.864Z,98800.53
2022-08-09T10:30:43.804Z,98795.69
2022-08-09T10:32:58.055Z,98795.19
2022-08-09T10:36:03.085Z,98781.59
2022-08-09T10:39:15.989Z,98791.50
2022-08-09T10:42:26.994Z,98785.75
2022-08-09T10:45:35.697Z,98781.66
2022-08-09T10:49:00.040Z,98776.06
2022-08-09T10:52:20.220Z,98776.22
2022-08-09T10:55:26.829Z,98774.88
2022-08-09T10:58:32.463Z,98781.53
2022-08-09T11:03:16.113Z,98772.94
2022-08-09T11:05:25.321Z,98764.59
2022-08-09T11:08:47.524Z,98759.63
2022-08-09T11:12:17.785Z,98765.19
2022-08-09T11:15:33.738Z,98761.38
2022-08-09T11:18:45.720Z,98764.94
2022-08-09T11:21:57.467Z,98713.81
2022-08-09T11:25:15.347Z,98746.13
2022-08-09T11:28:55.878Z,98753.13
2022-08-09T11:32:00.231Z,98758.13
2022-08-09T11:35:09.784Z,98748.78
2022-08-09T11:38:17.928Z,98764.91
2022-08-09T11:41:38.108Z,98760.44
2022-08-09T11:44:49.178Z,98738.63
2022-08-09T11:47:54.577Z,98767.25
2022-08-09T11:52:48.718Z,98751.25
2022-08-09T11:54:33.390Z,98757.13
2022-08-09T11:58:00.703Z,98760.59
2022-08-09T12:01:08.749Z,98743.78
2022-08-09T12:04:23.670Z,98744.09
2022-08-09T12:07:41.161Z,98738.13
2022-08-09T12:10:48.522Z,98740.16
2022-08-09T12:14:10.013Z,98740.97
2022-08-09T12:17:28.209Z,98752.72
2022-08-09T12:20:43.674Z,98747.47
2022-08-09T12:24:06.500Z,98748.47
2022-08-09T12:29:14.627Z,98736.91
2022-08-09T12:30:44.554Z,98747.28
2022-08-09T12:33:58.433Z,98733.22
2022-08-09T12:37:21.412Z,98727.44
2022-08-09T12:40:28.553Z,98726.72
2022-08-09T12:44:04.284Z,98733.97
2022-08-09T12:46:58.427Z,98732.88
2022-08-09T12:50:20.022Z,98729.47
2022-08-09T12:53:35.044Z,98717.94
2022-08-09T12:56:48.562Z,98712.91
2022-08-09T13:00:12.496Z,98720.00
2022-08-09T13:03:24.569Z,98716.88
2022-08-09T13:06:43.513Z,98711.88
2022-08-09T13:09:55.130Z,98694.28
2022-08-09T13:13:09.698Z,98703.22
2022-08-09T13:16:17.724Z,98706.00
2022-08-09T13:20:07.058Z,98691.47
2022-08-09T13:23:01.624Z,98696.91
2022-08-09T13:26:37.293Z,98661.75
2022-08-09T13:30:04.135Z,98704.91
2022-08-09T13:33:23.888Z,98691.13
2022-08-09T13:36:41.415Z,98688.84
2022-08-09T13:41:55.515Z,98688.63
2022-08-09T13:43:15.951Z,98684.78
2022-08-09T13:47:13.058Z,98681.72
2022-08-09T13:49:57.220Z,98690.97
2022-08-09T13:53:01.516Z,98685.63
2022-08-09T13:56:12.036Z,98690.03
2022-08-09T13:59:15.525Z,98674.59
2022-08-09T14:02:25.819Z,98662.66
2022-08-09T14:05:56.595Z,98673.09
2022-08-09T14:08:52.548Z,98672.75
2022-08-09T14:11:58.912Z,98676.63
2022-08-09T14:15:02.124Z,98672.25
2022-08-09T14:18:27.416Z,98666.25
2022-08-09T14:21:33.583Z,98658.75
2022-08-09T14:24:36.839Z,98665.22
2022-08-09T14:27:58.440Z,98666.16
2022-08-09T14:31:02.225Z,98667.06
2022-08-09T14:34:08.051Z,98651.66
2022-08-09T14:37:12.133Z,98673.56
2022-08-09T14:40:15.467Z,98661.75
2022-08-09T14:43:20.305Z,98670.03
2022-08-09T14:46:57.243Z,98664.72
2022-08-09T14:50:01.382Z,98662.69
2022-08-09T14:53:11.748Z,98655.31
2022-08-09T14:56:16.385Z,98658.09
2022-08-09T14:59:21.165Z,98655.22
2022-08-09T15:02:25.010Z,98661.31
2022-08-09T15:05:29.515Z,98662.00
2022-08-09T15:08:32.864Z,98661.88
2022-08-09T15:11:36.917Z,98653.19
2022-08-09T15:14:41.683Z,98656.03
2022-08-09T15:17:51.551Z,98652.66
2022-08-09T15:22:00.397Z,98638.44
2022-08-09T15:24:26.481Z,98636.59
2022-08-09T15:27:47.450Z,98610.41
2022-08-09T15:34:38.462Z,98634.94
2022-08-09T15:37:56.123Z,98630.69
2022-08-09T15:40:59.988Z,98632.91
2022-08-09T15:44:05.597Z,98639.06
2022-08-09T15:47:14.143Z,98642.72
2022-08-09T15:50:28.767Z,98638.81
2022-08-09T15:54:03.756Z,98628.19
2022-08-09T15:56:55.791Z,98630.84
2022-08-09T15:59:59.036Z,98639.53
2022-08-09T16:03:02.402Z,98641.06
2022-08-09T16:06:29.307Z,98639.22
2022-08-09T16:09:51.330Z,98638.88
2022-08-09T16:12:55.245Z,98637.06
2022-08-09T16:16:10.959Z,98642.38
2022-08-09T16:19:20.720Z,98626.09
2022-08-09T16:22:27.510Z,98618.41
2022-08-09T16:25:40.319Z,98626.56
2022-08-09T16:28:44.121Z,98624.38
2022-08-09T16:32:19.216Z,98623.25
2022-08-09T16:35:19.216Z,98618.75
2022-08-09T16:38:39.503Z,98596.97
2022-08-09T16:42:03.735Z,98621.22
2022-08-09T16:45:07.960Z,98622.91
2022-08-09T16:48:40.666Z,98619.94
2022-08-09T16:51:35.124Z,98621.41
2022-08-09T16:54:41.372Z,98629.56
2022-08-09T16:58:10.096Z,98626.91
2022-08-09T17:01:09.868Z,98621.44
2022-08-09T17:04:25.792Z,98615.91
2022-08-09T17:08:45.796Z,98624.56
2022-08-09T17:10:57.199Z,98620.84
2022-08-09T17:14:02.211Z,98637.97
2022-08-09T17:17:26.170Z,98635.81
2022-08-09T17:20:35.849Z,98627.81
2022-08-09T17:24:28.271Z,98629.31
2022-08-09T17:27:15.072Z,98623.41
2022-08-09T17:30:19.814Z,98635.72
2022-08-09T17:33:23.766Z,98630.88
2022-08-09T17:36:27.217Z,98637.38
2022-08-09T17:39:52.809Z,98636.47
2022-08-09T17:42:59.635Z,98637.63
2022-08-09T17:46:14.420Z,98646.88
2022-08-09T17:49:21.366Z,98648.25
2022-08-09T17:52:25.015Z,98643.56
2022-08-09T17:55:47.265Z,98653.31
2022-08-09T17:58:54.911Z,98654.84
2022-08-09T18:02:11.813Z,98647.22
2022-08-09T18:05:19.616Z,98645.22
2022-08-09T18:08:27.729Z,98639.84
2022-08-09T18:12:05.765Z,98650.47
2022-08-09T18:14:57.663Z,98596.88
2022-08-09T18:18:03.630Z,98659.31
2022-08-09T18:21:23.307Z,98657.78
2022-08-09T18:24:27.731Z,98653.72
2022-08-09T18:28:03.401Z,98659.91
2022-08-09T18:30:56.212Z,98658.84
2022-08-09T18:33:59.611Z,98662.81
2022-08-09T18:37:03.960Z,98661.19
2022-08-09T18:40:08.543Z,98651.66
2022-08-09T18:43:13.262Z,98647.41
2022-08-09T18:46:50.477Z,98671.78
2022-08-09T18:49:46.495Z,98673.13
2022-08-09T18:52:50.916Z,98678.00
2022-08-09T18:55:57.185Z,98684.91
2022-08-09T18:59:08.650Z,98688.91
2022-08-09T19:02:14.881Z,98696.94
2022-08-09T19:05:28.262Z,98681.75
2022-08-09T19:08:41.361Z,98704.50
2022-08-09T19:11:59.242Z,98702.66
2022-08-09T19:15:03.302Z,98709.59
2022-08-09T19:18:17.127Z,98714.19
2022-08-09T19:21:51.706Z,98721.19
2022-08-09T19:25:11.679Z,98725.97
2022-08-09T19:28:28.529Z,98723.00
2022-08-09T19:31:45.039Z,98729.22
2022-08-09T19:34:52.717Z,98728.91
2022-08-09T19:37:58.038Z,98719.28
2022-08-09T19:41:01.949Z,98721.34
2022-08-09T19:44:05.729Z,98737.78
2022-08-09T19:47:09.290Z,98734.03
2022-08-09T19:50:50.677Z,98741.81
2022-08-09T19:53:45.529Z,98743.94
2022-08-09T19:56:51.341Z,98750.91
2022-08-09T20:00:05.428Z,98743.25
2022-08-09T20:04:09.657Z,98747.75
2022-08-09T20:06:37.808Z,98740.78
2022-08-09T20:09:45.065Z,98743.91
2022-08-09T20:12:49.252Z,98744.28
2022-08-09T20:16:34.294Z,98750.41
2022-08-09T20:19:47.737Z,98750.72
2022-08-09T20:22:46.436Z,98760.38
2022-08-09T20:25:52.834Z,98751.00
2022-08-09T20:28:56.794Z,98752.59
2022-08-09T20:32:29.398Z,98760.34
2022-08-09T20:35:25.545Z,98757.34
2022-08-09T20:38:52.732Z,98753.38
2022-08-09T20:41:53.732Z,98762.88
2022-08-09T20:45:56.489Z,98760.41
2022-08-09T20:48:24.367Z,98763.38
2022-08-09T20:51:40.788Z,98770.19
2022-08-09T20:54:51.919Z,98765.38
2022-08-09T20:58:05.615Z,98773.81
2022-08-09T21:01:33.206Z,98773.72
2022-08-09T21:05:54.282Z,98766.44
2022-08-09T21:08:01.427Z,98759.13
2022-08-09T21:11:06.571Z,98773.28
2022-08-09T21:14:10.583Z,98781.22
2022-08-09T21:18:20.691Z,98769.56
2022-08-09T21:20:39.681Z,98770.34
2022-08-09T21:23:51.393Z,98761.47
2022-08-09T21:26:56.461Z,98776.56
2022-08-09T21:30:00.865Z,98764.47
2022-08-09T21:34:38.380Z,98778.03
2022-08-09T21:37:59.718Z,98782.88
2022-08-09T21:41:03.706Z,98789.66
2022-08-09T21:44:11.923Z,98787.00
2022-08-09T21:47:18.777Z,98784.53
2022-08-09T21:50:35.963Z,98794.34
2022-08-09T21:53:42.403Z,98778.66
2022-08-09T21:56:54.899Z,98792.25
2022-08-09T21:59:58.728Z,98796.06
2022-08-09T22:03:04.694Z,98793.94
2022-08-09T22:06:09.808Z,98792.75
2022-08-09T22:09:14.486Z,98792.44
2022-08-09T22:12:30.346Z,98793.50
2022-08-09T22:15:35.125Z,98804.69
2022-08-09T22:18:52.964Z,98804.19
2022-08-09T22:21:59.602Z,98796.72
2022-08-09T22:26:05.616Z,98800.19
2022-08-09T22:28:32.326Z,98806.69
2022-08-09T22:31:36.648Z,98802.09
2022-08-09T22:34:41.191Z,98779.66
2022-08-09T22:37:46.140Z,98807.88
2022-08-09T22:40:57.809Z,98815.03
2022-08-09T22:44:04.282Z,98810.22
2022-08-09T22:48:13.803Z,98816.94
2022-08-09T22:50:33.418Z,98811.03
2022-08-09T22:53:58.523Z,98790.75
2022-08-09T22:57:01.519Z,98816.09
2022-08-09T23:00:06.908Z,98780.97
2022-08-09T23:03:16.624Z,98816.16
2022-08-09T23:06:57.375Z,98809.22
2022-08-09T23:10:02.771Z,98809.72
2022-08-09T23:13:06.097Z,98813.63
2022-08-09T23:16:18.712Z,98805.41
2022-08-09T23:19:21.996Z,98801.66
2022-08-09T23:22:25.428Z,98807.03
2022-08-09T23:25:30.365Z,98806.44
2022-08-09T23:28:34.134Z,98804.38
2022-08-09T23:31:37.468Z,98803.19
2022-08-09T23:34:40.910Z,98801.63
2022-08-09T23:37:44.241Z,98802.88
2022-08-09T23:40:51.240Z,98796.94
2022-08-09T23:43:55.183Z,98807.00
2022-08-09T23:46:58.575Z,98802.56
2022-08-09T23:50:01.852Z,98799.47
2022-08-09T23:53:05.529Z,98723.50
2022-08-09T23:56:10.323Z,98773.53
2022-08-09T23:59:13.772Z,98776.22
